Terminal Aerodrome Forecast
Issued by NWS

Home | Current Version | Previous Version | Text Only | Print | Product List | Glossary On
Versions: 1 2 3 4 5 6 7 8 9 10 11 12 13 14 15 16 17 18 19 20 21 22 23 24
000
FTUS43 KDTX 290522
TAFYIP
TAF
KYIP 290522Z 2906/3006 16008KT P6SM BKN100 OVC200
     FM291000 16011G19KT P6SM SCT045 OVC080
     FM291300 17012KT 5SM -FZRAPL BKN030 OVC045
     FM291600 21010KT 2SM -RA BR BKN008 OVC022
     FM292000 29014G20KT 3SM -SHSN BKN018 OVC035
     FM300100 30015G25KT 6SM -SN BKN025 OVC040=

USA.gov is the U.S. government's official web portal to all federal, state and local government web resources and services.